Time;durP1;ratioP1;P1;durP2;ratioP2;P2;SDS_P1;SDS_P2;PMS_P1;PMS_P2;Temp;Humidity;BMP_temperature;BMP_pressure;BME280_temperature;BME280_humidity;BME280_pressure;Samples;Min_cycle;Max_cycle;Signal;HPM_P1;HPM_P2
2023/11/17 00:00:47;;;;;;;36.80;19.60;;;;;;;;;;5074225;28;20040;-80
2023/11/17 00:03:13;;;;;;;37.43;20.53;;;;;;;;;;5112706;28;20476;-82
2023/11/17 00:05:39;;;;;;;37.07;19.10;;;;;;;;;;5120292;28;20036;-82
2023/11/17 00:08:06;;;;;;;39.13;19.43;;;;;;;;;;5122743;28;20036;-81
2023/11/17 00:10:32;;;;;;;40.60;19.17;;;;;;;;;;5111947;28;20024;-82
2023/11/17 00:12:58;;;;;;;36.27;19.13;;;;;;;;;;5108969;28;20028;-81
2023/11/17 00:15:24;;;;;;;37.57;16.93;;;;;;;;;;5106875;28;20326;-81
2023/11/17 00:17:51;;;;;;;32.53;17.53;;;;;;;;;;5091392;28;20036;-80
2023/11/17 00:20:18;;;;;;;42.53;16.83;;;;;;;;;;5095347;28;20039;-80
2023/11/17 00:22:47;;;;;;;32.70;16.93;;;;;;;;;;5095371;28;20090;-80
2023/11/17 00:25:17;;;;;;;29.87;15.77;;;;;;;;;;5098033;28;20079;-80
2023/11/17 00:27:43;;;;;;;29.57;15.67;;;;;;;;;;5098217;28;20052;-80
2023/11/17 00:30:13;;;;;;;27.57;14.77;;;;;;;;;;5092201;28;20035;-80
2023/11/17 00:32:39;;;;;;;28.83;15.03;;;;;;;;;;5095128;28;20056;-80
2023/11/17 00:35:06;;;;;;;30.47;15.00;;;;;;;;;;5112896;27;20501;-79
2023/11/17 00:37:33;;;;;;;32.53;14.17;;;;;;;;;;5092749;28;20115;-77
2023/11/17 00:39:59;;;;;;;35.00;16.40;;;;;;;;;;5082169;28;20037;-79
2023/11/17 00:42:26;;;;;;;23.30;13.53;;;;;;;;;;5070709;28;21445;-79
2023/11/17 00:44:52;;;;;;;23.90;12.83;;;;;;;;;;5081225;28;20040;-80
2023/11/17 00:47:18;;;;;;;22.57;11.33;;;;;;;;;;5101109;27;20033;-81
2023/11/17 00:49:44;;;;;;;22.33;11.90;;;;;;;;;;5082979;28;20048;-80
2023/11/17 00:52:10;;;;;;;26.60;11.93;;;;;;;;;;5090173;28;20032;-80
2023/11/17 00:54:42;;;;;;;20.77;10.33;;;;;;;;;;5093402;28;20024;-81
2023/11/17 00:57:10;;;;;;;16.57;10.57;;;;;;;;;;5082992;28;20070;-80
2023/11/17 00:59:38;;;;;;;20.83;9.83;;;;;;;;;;5098323;28;20028;-78
2023/11/17 01:02:04;;;;;;;20.53;10.17;;;;;;;;;;5084938;28;20041;-80
2023/11/17 01:04:30;;;;;;;14.97;9.73;;;;;;;;;;5086234;28;20032;-80
2023/11/17 01:06:56;;;;;;;21.30;10.43;;;;;;;;;;5081735;28;20033;-80
2023/11/17 01:09:24;;;;;;;18.37;10.33;;;;;;;;;;5081314;28;20490;-80
2023/11/17 01:11:50;;;;;;;20.00;10.17;;;;;;;;;;5073195;28;20035;-81
2023/11/17 01:14:16;;;;;;;18.50;10.53;;;;;;;;;;5082919;28;20084;-80
2023/11/17 01:16:43;;;;;;;24.17;11.27;;;;;;;;;;5072611;28;20040;-80
2023/11/17 01:19:09;;;;;;;16.53;10.20;;;;;;;;;;5082223;28;20482;-80
2023/11/17 01:21:35;;;;;;;20.60;10.80;;;;;;;;;;5082663;28;20218;-80
2023/11/17 01:24:01;;;;;;;19.27;9.93;;;;;;;;;;5083185;28;20071;-81
2023/11/17 01:26:28;;;;;;;17.77;10.90;;;;;;;;;;5082814;28;20040;-79
2023/11/17 01:28:54;;;;;;;32.17;12.83;;;;;;;;;;5106890;27;20029;-80
2023/11/17 01:31:21;;;;;;;26.97;11.13;;;;;;;;;;5083350;28;20032;-80
2023/11/17 01:33:50;;;;;;;24.00;11.53;;;;;;;;;;5083439;28;20029;-80
2023/11/17 01:36:20;;;;;;;26.37;12.60;;;;;;;;;;5078634;28;20024;-81
2023/11/17 01:38:46;;;;;;;25.80;12.90;;;;;;;;;;5082195;28;20063;-80
2023/11/17 01:41:15;;;;;;;23.90;10.83;;;;;;;;;;5074201;28;21709;-80
2023/11/17 01:43:43;;;;;;;29.73;12.97;;;;;;;;;;5105484;27;20036;-79
2023/11/17 01:46:10;;;;;;;23.27;11.67;;;;;;;;;;5082499;28;20044;-80
2023/11/17 01:48:37;;;;;;;29.17;13.17;;;;;;;;;;5106598;27;20023;-80
2023/11/17 01:51:04;;;;;;;23.93;12.47;;;;;;;;;;5081239;28;20035;-80
2023/11/17 01:53:31;;;;;;;25.10;12.73;;;;;;;;;;5071477;28;20280;-80
2023/11/17 01:55:58;;;;;;;27.77;13.20;;;;;;;;;;5079018;28;20165;-80
2023/11/17 01:58:26;;;;;;;39.63;13.07;;;;;;;;;;5078696;28;20035;-79
2023/11/17 02:00:52;;;;;;;29.83;14.03;;;;;;;;;;5077718;28;20120;-80
2023/11/17 02:03:19;;;;;;;27.40;13.60;;;;;;;;;;5072037;28;20017;-80
2023/11/17 02:05:46;;;;;;;26.10;13.17;;;;;;;;;;5080317;28;20048;-79
2023/11/17 02:08:24;;;;;;;23.03;13.10;;;;;;;;;;5071207;28;20070;-80
2023/11/17 02:10:56;;;;;;;25.93;14.03;;;;;;;;;;5080024;28;20028;-81
2023/11/17 02:13:27;;;;;;;25.13;14.20;;;;;;;;;;5081292;28;20059;-83
2023/11/17 02:15:55;;;;;;;30.33;14.83;;;;;;;;;;5081155;28;20063;-80
2023/11/17 02:18:25;;;;;;;26.77;13.97;;;;;;;;;;5088740;28;20415;-81
2023/11/17 02:20:52;;;;;;;34.13;14.80;;;;;;;;;;5084646;28;20032;-80
2023/11/17 02:23:19;;;;;;;26.87;14.03;;;;;;;;;;5068294;28;20029;-79
2023/11/17 02:25:46;;;;;;;25.80;14.57;;;;;;;;;;5080306;28;20028;-80
2023/11/17 02:28:34;;;;;;;26.57;14.47;;;;;;;;;;5071129;28;20085;-80
2023/11/17 02:31:12;;;;;;;26.20;14.17;;;;;;;;;;5080622;28;20029;-80
2023/11/17 02:33:41;;;;;;;29.20;15.43;;;;;;;;;;5103755;27;20052;-80
2023/11/17 02:36:16;;;;;;;29.20;14.40;;;;;;;;;;5080754;28;20032;-79
2023/11/17 02:39:12;;;;;;;26.03;14.07;;;;;;;;;;5070928;28;20035;-80
2023/11/17 02:41:42;;;;;;;26.33;13.17;;;;;;;;;;5073804;28;20109;-80
2023/11/17 02:44:12;;;;;;;29.57;14.17;;;;;;;;;;5081725;28;20033;-79
2023/11/17 02:46:44;;;;;;;29.80;13.90;;;;;;;;;;5062508;28;20048;-80
2023/11/17 02:49:17;;;;;;;30.33;14.18;;;;;;;;;;5079313;28;20020;-80
2023/11/17 02:51:50;;;;;;;24.23;13.37;;;;;;;;;;5080447;28;20025;-79
2023/11/17 02:54:16;;;;;;;24.23;12.15;;;;;;;;;;5082325;28;20068;-79
2023/11/17 02:56:43;;;;;;;25.93;13.03;;;;;;;;;;5082052;28;20037;-80
2023/11/17 02:59:10;;;;;;;22.20;11.93;;;;;;;;;;5080225;28;20491;-79
2023/11/17 03:01:40;;;;;;;24.70;12.43;;;;;;;;;;5082208;28;20044;-79
2023/11/17 03:04:13;;;;;;;20.80;11.70;;;;;;;;;;5082208;28;20074;-79
2023/11/17 03:06:47;;;;;;;23.23;11.93;;;;;;;;;;5080170;28;20032;-80
2023/11/17 03:09:21;;;;;;;18.83;12.03;;;;;;;;;;5067222;28;20028;-80
2023/11/17 03:11:49;;;;;;;18.60;10.20;;;;;;;;;;5095658;28;20040;-79
2023/11/17 03:14:15;;;;;;;22.57;13.43;;;;;;;;;;5077187;28;20477;-81
2023/11/17 03:16:41;;;;;;;21.57;11.70;;;;;;;;;;5077221;28;20078;-80
2023/11/17 03:19:11;;;;;;;24.20;12.13;;;;;;;;;;5076528;28;20036;-80
2023/11/17 03:21:44;;;;;;;23.50;10.57;;;;;;;;;;5078798;28;20033;-80
2023/11/17 03:24:17;;;;;;;22.13;12.17;;;;;;;;;;5078270;28;20048;-80
2023/11/17 03:26:43;;;;;;;;;;;;;;;;;;5069216;28;20449;-80
2023/11/17 03:29:09;;;;;;;25.93;12.70;;;;;;;;;;5078238;28;19909;-80
2023/11/17 03:31:36;;;;;;;26.87;13.57;;;;;;;;;;5075297;28;20028;-80
2023/11/17 03:34:02;;;;;;;24.70;14.00;;;;;;;;;;5092170;28;20098;-81
2023/11/17 03:36:28;;;;;;;28.37;14.77;;;;;;;;;;5095910;28;20028;-80
2023/11/17 03:38:57;;;;;;;23.33;12.90;;;;;;;;;;5078407;28;20131;-79
2023/11/17 03:41:23;;;;;;;25.53;12.20;;;;;;;;;;5076350;28;20032;-80
2023/11/17 03:43:49;;;;;;;24.13;12.57;;;;;;;;;;5077394;28;20051;-80
2023/11/17 03:46:15;;;;;;;24.20;12.63;;;;;;;;;;5059908;28;20116;-80
2023/11/17 03:48:41;;;;;;;21.57;11.90;;;;;;;;;;5077986;28;20098;-80
2023/11/17 03:51:08;;;;;;;21.67;11.60;;;;;;;;;;5076475;28;20065;-79
2023/11/17 03:53:37;;;;;;;22.57;12.30;;;;;;;;;;5077353;28;20028;-81
2023/11/17 03:56:04;;;;;;;19.53;11.60;;;;;;;;;;5061798;28;20062;-79
2023/11/17 03:58:30;;;;;;;21.13;11.47;;;;;;;;;;5072355;28;20024;-80
2023/11/17 04:00:57;;;;;;;23.03;12.47;;;;;;;;;;5077797;28;20063;-80
2023/11/17 04:03:23;;;;;;;21.83;11.20;;;;;;;;;;5077129;28;20021;-80
2023/11/17 04:05:49;;;;;;;19.73;10.77;;;;;;;;;;5077297;28;20116;-80
2023/11/17 04:08:17;;;;;;;19.27;10.00;;;;;;;;;;5077340;28;20089;-80
2023/11/17 04:10:45;;;;;;;18.70;10.23;;;;;;;;;;5078268;28;20049;-81
2023/11/17 04:13:11;;;;;;;20.57;12.60;;;;;;;;;;5077928;28;20028;-79
2023/11/17 04:15:37;;;;;;;27.07;11.33;;;;;;;;;;5082426;28;20051;-80
2023/11/17 04:18:03;;;;;;;18.83;10.83;;;;;;;;;;5078145;28;20079;-79
2023/11/17 04:20:30;;;;;;;21.13;10.70;;;;;;;;;;5078675;28;20029;-80
2023/11/17 04:22:56;;;;;;;22.13;11.93;;;;;;;;;;5095749;28;20037;-80
2023/11/17 04:25:22;;;;;;;27.13;11.40;;;;;;;;;;5079998;28;20094;-80
2023/11/17 04:27:48;;;;;;;20.60;10.77;;;;;;;;;;5066865;28;20029;-80
2023/11/17 04:30:14;;;;;;;22.87;11.00;;;;;;;;;;5081116;28;20072;-80
2023/11/17 04:32:40;;;;;;;24.70;13.27;;;;;;;;;;5064533;28;20028;-80
2023/11/17 04:35:08;;;;;;;24.77;13.60;;;;;;;;;;5066815;28;20039;-80
2023/11/17 04:37:38;;;;;;;33.13;15.03;;;;;;;;;;5079364;28;20039;-80
2023/11/17 04:40:04;;;;;;;34.20;15.60;;;;;;;;;;5066689;28;20437;-80
2023/11/17 04:42:31;;;;;;;43.57;18.97;;;;;;;;;;5080212;28;20047;-81
2023/11/17 04:44:57;;;;;;;44.37;17.97;;;;;;;;;;5077703;28;20044;-80
2023/11/17 04:47:24;;;;;;;74.17;20.60;;;;;;;;;;5072536;28;20033;-81
2023/11/17 04:49:50;;;;;;;60.43;18.10;;;;;;;;;;5094740;28;20020;-81
2023/11/17 04:52:16;;;;;;;64.43;19.93;;;;;;;;;;5081490;28;20024;-80
2023/11/17 04:54:45;;;;;;;62.20;20.47;;;;;;;;;;5086773;28;20094;-80
2023/11/17 04:57:14;;;;;;;70.87;22.23;;;;;;;;;;5109848;28;20032;-81
2023/11/17 04:59:40;;;;;;;84.33;24.20;;;;;;;;;;5080934;28;20128;-81
2023/11/17 05:02:06;;;;;;;83.43;25.30;;;;;;;;;;5096236;28;20117;-80
2023/11/17 05:04:33;;;;;;;89.07;26.47;;;;;;;;;;5097426;28;20044;-81
2023/11/17 05:06:59;;;;;;;78.57;25.23;;;;;;;;;;5083923;28;20044;-81
2023/11/17 05:09:25;;;;;;;59.83;25.77;;;;;;;;;;5093794;28;20111;-81
2023/11/17 05:11:52;;;;;;;71.13;25.87;;;;;;;;;;5082691;28;20039;-80
2023/11/17 05:14:18;;;;;;;65.90;26.23;;;;;;;;;;5098158;28;20024;-80
2023/11/17 05:16:46;;;;;;;69.93;26.93;;;;;;;;;;5097500;28;20136;-81
2023/11/17 05:19:15;;;;;;;60.90;26.43;;;;;;;;;;5102047;28;20028;-81
2023/11/17 05:21:41;;;;;;;60.37;25.47;;;;;;;;;;5097356;28;20043;-81
2023/11/17 05:24:08;;;;;;;55.73;25.37;;;;;;;;;;5092601;28;20051;-81
2023/11/17 05:26:34;;;;;;;55.13;23.37;;;;;;;;;;5081796;28;20114;-81
2023/11/17 05:29:00;;;;;;;54.10;22.93;;;;;;;;;;5090468;28;20388;-80
2023/11/17 05:31:27;;;;;;;49.47;22.03;;;;;;;;;;5108456;28;20035;-79
2023/11/17 05:33:54;;;;;;;52.67;23.63;;;;;;;;;;5096929;28;20397;-80
2023/11/17 05:36:20;;;;;;;50.33;22.80;;;;;;;;;;5092917;28;20028;-81
2023/11/17 05:38:48;;;;;;;54.53;23.50;;;;;;;;;;5095214;28;20388;-81
2023/11/17 05:41:16;;;;;;;45.47;22.13;;;;;;;;;;5094729;28;20081;-81
2023/11/17 05:43:45;;;;;;;51.37;21.43;;;;;;;;;;5108679;28;20024;-82
2023/11/17 05:46:12;;;;;;;51.87;22.60;;;;;;;;;;5106384;28;20044;-82
2023/11/17 05:48:38;;;;;;;54.87;24.17;;;;;;;;;;5095296;28;20055;-81
2023/11/17 05:51:09;;;;;;;54.27;22.97;;;;;;;;;;5100827;28;20119;-81
2023/11/17 05:53:37;;;;;;;48.70;22.17;;;;;;;;;;5095525;28;20038;-80
2023/11/17 05:56:04;;;;;;;57.30;23.43;;;;;;;;;;5072474;28;20043;-82
2023/11/17 05:58:30;;;;;;;55.37;23.07;;;;;;;;;;5087357;28;20033;-80
2023/11/17 06:00:56;;;;;;;57.23;24.10;;;;;;;;;;5096402;28;20049;-81
2023/11/17 06:03:22;;;;;;;57.30;24.03;;;;;;;;;;5091086;28;20035;-81
2023/11/17 06:05:48;;;;;;;52.20;23.33;;;;;;;;;;5103178;28;20039;-80
2023/11/17 06:08:14;;;;;;;59.43;24.70;;;;;;;;;;5102095;28;20058;-81
2023/11/17 06:10:40;;;;;;;53.40;24.67;;;;;;;;;;5084973;28;20021;-81
2023/11/17 06:13:07;;;;;;;49.30;23.10;;;;;;;;;;5079751;28;20083;-81
2023/11/17 06:15:34;;;;;;;49.93;23.00;;;;;;;;;;5092629;28;20048;-80
2023/11/17 06:18:04;;;;;;;47.93;21.97;;;;;;;;;;5072029;28;20128;-80
2023/11/17 06:20:30;;;;;;;52.10;22.87;;;;;;;;;;5065409;28;20052;-78
2023/11/17 06:22:57;;;;;;;49.83;22.53;;;;;;;;;;5078944;28;20029;-80
2023/11/17 06:25:25;;;;;;;46.80;20.93;;;;;;;;;;5078163;28;20028;-80
2023/11/17 06:27:51;;;;;;;46.23;22.23;;;;;;;;;;5077169;28;20045;-79
2023/11/17 06:30:17;;;;;;;49.03;22.33;;;;;;;;;;5078299;28;20035;-80
2023/11/17 06:32:44;;;;;;;48.70;21.87;;;;;;;;;;5077220;28;20446;-80
2023/11/17 06:35:10;;;;;;;46.13;23.00;;;;;;;;;;5094010;28;20024;-80
2023/11/17 06:37:37;;;;;;;54.83;22.20;;;;;;;;;;5075421;28;20028;-79
2023/11/17 06:40:07;;;;;;;51.47;21.90;;;;;;;;;;5077525;28;20051;-80
2023/11/17 06:42:33;;;;;;;44.53;22.63;;;;;;;;;;5061889;28;20112;-80
2023/11/17 06:45:00;;;;;;;45.67;22.87;;;;;;;;;;5076975;28;20115;-78
2023/11/17 06:47:26;;;;;;;47.93;22.27;;;;;;;;;;5092456;28;20059;-78
2023/11/17 06:49:53;;;;;;;47.60;21.80;;;;;;;;;;5072098;28;20472;-78
2023/11/17 06:52:19;;;;;;;50.37;22.50;;;;;;;;;;5079705;28;21637;-80
2023/11/17 06:54:45;;;;;;;46.67;23.00;;;;;;;;;;5076568;28;20044;-78
2023/11/17 06:57:11;;;;;;;43.60;21.30;;;;;;;;;;5079254;28;20036;-79
2023/11/17 06:59:37;;;;;;;42.10;21.70;;;;;;;;;;5077393;28;20094;-81
2023/11/17 07:02:03;;;;;;;47.73;21.03;;;;;;;;;;5077044;28;20032;-79
2023/11/17 07:04:30;;;;;;;44.17;21.00;;;;;;;;;;5108304;27;20029;-80
2023/11/17 07:06:59;;;;;;;37.00;20.00;;;;;;;;;;5080155;28;20035;-80
2023/11/17 07:09:30;;;;;;;42.63;21.50;;;;;;;;;;5072287;28;20024;-80
2023/11/17 07:11:59;;;;;;;42.20;20.20;;;;;;;;;;5068949;28;20111;-80
2023/11/17 07:14:26;;;;;;;43.77;20.40;;;;;;;;;;5090524;28;20024;-80
2023/11/17 07:16:54;;;;;;;45.80;21.43;;;;;;;;;;5079585;28;20123;-80
2023/11/17 07:19:20;;;;;;;45.80;21.07;;;;;;;;;;5078055;28;20037;-80
2023/11/17 07:21:48;;;;;;;40.93;20.50;;;;;;;;;;5073427;28;20360;-80
2023/11/17 07:24:14;;;;;;;48.60;22.53;;;;;;;;;;5069889;28;20042;-80
2023/11/17 07:26:41;;;;;;;44.70;22.60;;;;;;;;;;5077521;28;20032;-79
2023/11/17 07:29:07;;;;;;;47.87;22.23;;;;;;;;;;5073944;28;20063;-80
2023/11/17 07:31:39;;;;;;;47.10;22.00;;;;;;;;;;5069905;28;20085;-80
2023/11/17 07:34:07;;;;;;;45.97;22.75;;;;;;;;;;5074942;28;20017;-80
2023/11/17 07:36:35;;;;;;;44.70;22.53;;;;;;;;;;5111033;28;20029;-80
2023/11/17 07:39:03;;;;;;;51.10;21.67;;;;;;;;;;5073384;28;20036;-79
2023/11/17 07:41:29;;;;;;;55.33;21.97;;;;;;;;;;5069428;28;20531;-80
2023/11/17 07:43:56;;;;;;;43.60;20.83;;;;;;;;;;5087919;28;20089;-79
2023/11/17 07:46:25;;;;;;;51.80;23.17;;;;;;;;;;5079052;28;20032;-79
2023/11/17 07:48:51;;;;;;;40.93;21.60;;;;;;;;;;5077389;28;20025;-79
2023/11/17 07:51:17;;;;;;;45.77;21.80;;;;;;;;;;5080878;28;20119;-80
2023/11/17 07:53:43;;;;;;;43.57;21.20;;;;;;;;;;5070107;28;20125;-80
2023/11/17 07:56:12;;;;;;;45.70;22.00;;;;;;;;;;5079232;28;20059;-79
2023/11/17 07:58:38;;;;;;;43.07;21.87;;;;;;;;;;5078645;28;20059;-79
2023/11/17 08:01:08;;;;;;;42.57;21.67;;;;;;;;;;5104987;27;20375;-79
2023/11/17 08:03:37;;;;;;;49.27;23.33;;;;;;;;;;5105783;27;20167;-79
2023/11/17 08:06:04;;;;;;;57.37;27.60;;;;;;;;;;5079434;28;20029;-80
2023/11/17 08:08:30;;;;;;;56.17;27.07;;;;;;;;;;5081366;28;20420;-80
2023/11/17 08:10:56;;;;;;;60.10;29.57;;;;;;;;;;5080871;28;20052;-79
2023/11/17 08:13:22;;;;;;;62.67;31.60;;;;;;;;;;5086629;28;21550;-80
2023/11/17 08:15:49;;;;;;;68.37;31.17;;;;;;;;;;5080649;28;20043;-80
2023/11/17 08:18:18;;;;;;;69.57;30.90;;;;;;;;;;5082089;28;20088;-79
2023/11/17 08:20:45;;;;;;;54.93;29.07;;;;;;;;;;5080235;28;20132;-79
2023/11/17 08:23:11;;;;;;;64.80;30.50;;;;;;;;;;5081449;28;20036;-80
2023/11/17 08:25:38;;;;;;;61.90;30.07;;;;;;;;;;5074210;28;20451;-80
2023/11/17 08:28:04;;;;;;;70.03;30.50;;;;;;;;;;5090886;28;20042;-80
2023/11/17 08:30:30;;;;;;;61.97;30.30;;;;;;;;;;5075191;28;20143;-80
2023/11/17 08:32:57;;;;;;;68.13;31.50;;;;;;;;;;5073602;28;20096;-80
2023/11/17 08:35:24;;;;;;;69.57;33.43;;;;;;;;;;5072975;28;20024;-79
2023/11/17 08:37:52;;;;;;;68.03;32.00;;;;;;;;;;5101998;27;20508;-80
2023/11/17 08:40:18;;;;;;;74.93;31.77;;;;;;;;;;5079321;28;20112;-80
2023/11/17 08:42:45;;;;;;;66.60;31.47;;;;;;;;;;5078360;28;20025;-80
2023/11/17 08:45:12;;;;;;;69.87;33.00;;;;;;;;;;5079709;28;20040;-80
2023/11/17 08:47:39;;;;;;;69.93;34.20;;;;;;;;;;5078723;28;20029;-80
2023/11/17 08:50:07;;;;;;;81.93;35.47;;;;;;;;;;5077189;28;20021;-80
2023/11/17 08:52:34;;;;;;;69.00;31.37;;;;;;;;;;5070473;28;20021;-80
2023/11/17 08:55:01;;;;;;;73.97;33.37;;;;;;;;;;5077516;28;20031;-80
2023/11/17 08:57:27;;;;;;;70.10;34.17;;;;;;;;;;5077915;28;20013;-80
2023/11/17 08:59:53;;;;;;;75.40;32.83;;;;;;;;;;5094174;28;20045;-80
2023/11/17 09:02:19;;;;;;;66.17;31.63;;;;;;;;;;5094270;28;20025;-80
2023/11/17 09:04:46;;;;;;;78.57;34.83;;;;;;;;;;5077453;28;20035;-80
2023/11/17 09:07:13;;;;;;;80.03;35.50;;;;;;;;;;5079139;28;20029;-79
2023/11/17 09:09:41;;;;;;;68.27;33.57;;;;;;;;;;5060815;28;20483;-79
2023/11/17 09:12:07;;;;;;;75.93;35.10;;;;;;;;;;5079677;28;20454;-80
2023/11/17 09:14:36;;;;;;;66.70;31.43;;;;;;;;;;5077748;28;20028;-79
2023/11/17 09:17:06;;;;;;;64.17;30.63;;;;;;;;;;5079449;28;20041;-80
2023/11/17 09:19:37;;;;;;;76.33;35.00;;;;;;;;;;5082108;28;20377;-80
2023/11/17 09:22:04;;;;;;;72.13;32.50;;;;;;;;;;5081552;28;20040;-81
2023/11/17 09:24:31;;;;;;;73.70;33.60;;;;;;;;;;5101323;28;20464;-79
2023/11/17 09:26:57;;;;;;;68.50;32.67;;;;;;;;;;5083779;28;20028;-80
2023/11/17 09:29:24;;;;;;;81.13;35.97;;;;;;;;;;5086408;28;20051;-80
2023/11/17 09:31:50;;;;;;;81.70;35.37;;;;;;;;;;5077509;28;20028;-80
2023/11/17 09:34:18;;;;;;;74.23;36.87;;;;;;;;;;5079761;28;20185;-79
2023/11/17 09:36:44;;;;;;;73.50;34.57;;;;;;;;;;5081749;28;20041;-81
2023/11/17 09:39:10;;;;;;;81.43;37.30;;;;;;;;;;5065648;28;20101;-79
2023/11/17 09:41:39;;;;;;;78.63;33.43;;;;;;;;;;5095988;28;20534;-79
2023/11/17 09:44:09;;;;;;;75.53;35.43;;;;;;;;;;5078791;28;20033;-80
2023/11/17 09:46:40;;;;;;;81.30;33.90;;;;;;;;;;5077573;28;20397;-80
2023/11/17 09:49:07;;;;;;;64.03;32.93;;;;;;;;;;5077132;28;20068;-80
2023/11/17 09:51:34;;;;;;;81.60;34.87;;;;;;;;;;5059883;28;20032;-80
2023/11/17 09:54:02;;;;;;;80.47;35.73;;;;;;;;;;5076297;28;20032;-81
2023/11/17 09:56:29;;;;;;;82.07;37.33;;;;;;;;;;5080168;28;20044;-80
2023/11/17 09:58:56;;;;;;;74.80;35.00;;;;;;;;;;5079247;28;20445;-79
2023/11/17 10:01:24;;;;;;;76.57;35.60;;;;;;;;;;5060451;28;20108;-78
2023/11/17 10:03:51;;;;;;;78.30;36.47;;;;;;;;;;5077453;28;20471;-80
2023/11/17 10:06:18;;;;;;;95.73;40.50;;;;;;;;;;5097085;28;20047;-80
2023/11/17 10:08:45;;;;;;;76.37;35.30;;;;;;;;;;5078825;28;20117;-80
2023/11/17 10:11:15;;;;;;;80.47;36.03;;;;;;;;;;5076297;28;20115;-80
2023/11/17 10:13:41;;;;;;;75.97;34.63;;;;;;;;;;5079320;28;20028;-80
2023/11/17 10:16:08;;;;;;;73.37;35.00;;;;;;;;;;5077371;28;20044;-79
2023/11/17 10:18:34;;;;;;;70.43;32.77;;;;;;;;;;5077852;28;20063;-80
2023/11/17 10:21:01;;;;;;;77.80;35.33;;;;;;;;;;5075665;28;20040;-80
2023/11/17 10:23:28;;;;;;;72.53;32.90;;;;;;;;;;5077506;28;20028;-80
2023/11/17 10:25:55;;;;;;;81.73;35.30;;;;;;;;;;5093644;28;20064;-80
2023/11/17 10:28:21;;;;;;;82.37;37.37;;;;;;;;;;5077533;28;20076;-79
2023/11/17 10:30:48;;;;;;;70.47;33.17;;;;;;;;;;5077830;28;20085;-80
2023/11/17 10:33:20;;;;;;;74.97;33.33;;;;;;;;;;5076768;28;20029;-80
2023/11/17 10:36:10;;;;;;;80.22;36.72;;;;;;;;;;5076146;28;20164;-80
2023/11/17 10:38:36;;;;;;;75.77;34.80;;;;;;;;;;5078929;28;20033;-78
2023/11/17 10:41:32;;;;;;;79.33;34.93;;;;;;;;;;5079061;28;20111;-79
2023/11/17 10:43:59;;;;;;;68.50;31.27;;;;;;;;;;5091071;28;20043;-81
2023/11/17 10:46:29;;;;;;;80.57;34.63;;;;;;;;;;5092903;28;20268;-81
2023/11/17 10:49:00;;;;;;;71.23;33.87;;;;;;;;;;5104850;27;20039;-81
2023/11/17 10:51:31;;;;;;;73.87;33.43;;;;;;;;;;5095959;28;20085;-81
2023/11/17 10:54:13;;;;;;;73.13;31.97;;;;;;;;;;5088071;28;20032;-81
2023/11/17 10:56:39;;;;;;;;;;;;;;;;;;5068027;28;20107;-79
2023/11/17 10:59:08;;;;;;;73.10;31.87;;;;;;;;;;5079289;28;19958;-81
2023/11/17 11:01:36;;;;;;;70.80;32.73;;;;;;;;;;5079732;28;20463;-80
2023/11/17 11:04:03;;;;;;;71.13;33.30;;;;;;;;;;5080635;28;20028;-81
2023/11/17 11:06:30;;;;;;;83.63;35.30;;;;;;;;;;5078444;28;20036;-80
2023/11/17 11:08:59;;;;;;;82.53;37.30;;;;;;;;;;5082524;28;20454;-80
2023/11/17 11:11:26;;;;;;;80.43;36.87;;;;;;;;;;5091938;28;20050;-80
2023/11/17 11:13:55;;;;;;;82.50;36.20;;;;;;;;;;5085740;28;20033;-80
2023/11/17 11:16:23;;;;;;;80.10;37.20;;;;;;;;;;5091783;28;20029;-80
2023/11/17 11:18:53;;;;;;;84.23;37.20;;;;;;;;;;5082059;28;20044;-80
2023/11/17 11:21:20;;;;;;;80.80;36.77;;;;;;;;;;5078666;28;20049;-80
2023/11/17 11:23:46;;;;;;;79.67;36.33;;;;;;;;;;5095219;28;20052;-80
2023/11/17 11:26:14;;;;;;;84.57;38.10;;;;;;;;;;5094160;28;20460;-81
2023/11/17 11:28:45;;;;;;;83.40;35.83;;;;;;;;;;5081553;28;20093;-80
2023/11/17 11:31:14;;;;;;;78.03;34.27;;;;;;;;;;5097207;28;20028;-81
2023/11/17 11:33:41;;;;;;;88.30;36.70;;;;;;;;;;5089745;28;20016;-81
2023/11/17 11:36:10;;;;;;;81.87;38.20;;;;;;;;;;5083932;28;20051;-80
2023/11/17 11:38:37;;;;;;;90.30;41.30;;;;;;;;;;5081618;28;20052;-80
2023/11/17 11:41:07;;;;;;;91.07;38.47;;;;;;;;;;5076072;28;20029;-80
2023/11/17 11:43:33;;;;;;;76.10;35.20;;;;;;;;;;5077977;28;20029;-80
2023/11/17 11:45:59;;;;;;;89.23;37.93;;;;;;;;;;5091484;28;20425;-80
2023/11/17 11:48:30;;;;;;;83.33;35.83;;;;;;;;;;5085743;28;20447;-81
2023/11/17 11:50:56;;;;;;;92.37;36.20;;;;;;;;;;5082387;28;20067;-81
2023/11/17 11:53:27;;;;;;;80.93;35.90;;;;;;;;;;5105668;28;20021;-80
2023/11/17 11:55:53;;;;;;;83.77;35.80;;;;;;;;;;5078824;28;20047;-81
2023/11/17 11:58:19;;;;;;;86.50;35.00;;;;;;;;;;5081318;28;20078;-80
2023/11/17 12:00:49;;;;;;;86.97;37.13;;;;;;;;;;5098139;28;20046;-81
2023/11/17 12:03:15;;;;;;;85.90;35.03;;;;;;;;;;5080754;28;20107;-80
2023/11/17 12:05:45;;;;;;;82.07;36.20;;;;;;;;;;5099016;28;20059;-80
2023/11/17 12:08:22;;;;;;;93.03;36.90;;;;;;;;;;5089771;28;20033;-81
2023/11/17 12:10:49;;;;;;;94.90;35.90;;;;;;;;;;5094492;28;20032;-81
2023/11/17 12:13:33;;;;;;;79.87;34.50;;;;;;;;;;5083482;28;20077;-81
2023/11/17 12:16:02;;;;;;;78.67;33.60;;;;;;;;;;5093888;28;20032;-80
2023/11/17 12:18:32;;;;;;;82.47;33.23;;;;;;;;;;5076090;28;20032;-81
2023/11/17 12:21:12;;;;;;;78.57;34.73;;;;;;;;;;5075179;28;20109;-81
2023/11/17 12:23:48;;;;;;;79.33;34.07;;;;;;;;;;5074969;28;20106;-80
2023/11/17 12:26:16;;;;;;;86.50;34.73;;;;;;;;;;5074761;28;20044;-80
2023/11/17 12:28:44;;;;;;;77.37;34.83;;;;;;;;;;5076084;28;20032;-80
2023/11/17 12:31:11;;;;;;;80.17;33.70;;;;;;;;;;5076439;28;20464;-80
2023/11/17 12:33:38;;;;;;;84.07;33.63;;;;;;;;;;5060830;28;20054;-80
2023/11/17 12:36:05;;;;;;;73.97;32.83;;;;;;;;;;5077330;28;20032;-80
2023/11/17 12:38:31;;;;;;;80.00;32.50;;;;;;;;;;5061824;28;20126;-80
2023/11/17 12:41:03;;;;;;;72.40;31.70;;;;;;;;;;5079197;28;20086;-80
2023/11/17 12:43:30;;;;;;;79.88;33.78;;;;;;;;;;5079971;28;20037;-80
2023/11/17 12:46:00;;;;;;;85.37;32.67;;;;;;;;;;5079887;28;20029;-80
2023/11/17 12:48:27;;;;;;;78.10;32.17;;;;;;;;;;5077033;28;20021;-80
2023/11/17 12:50:56;;;;;;;76.57;32.83;;;;;;;;;;5080532;28;20035;-80
2023/11/17 12:53:23;;;;;;;77.93;33.67;;;;;;;;;;5081732;28;20111;-80
2023/11/17 12:55:51;;;;;;;77.00;33.97;;;;;;;;;;5079818;28;20032;-80
2023/11/17 12:58:19;;;;;;;75.63;32.27;;;;;;;;;;5073684;28;20033;-80
2023/11/17 13:00:48;;;;;;;73.43;30.43;;;;;;;;;;5075144;28;20124;-79
2023/11/17 13:03:15;;;;;;;70.77;29.83;;;;;;;;;;5070643;28;20062;-81
2023/11/17 13:05:41;;;;;;;71.17;31.13;;;;;;;;;;5080434;28;20068;-80
2023/11/17 13:08:08;;;;;;;63.10;29.23;;;;;;;;;;5090762;28;20039;-80
2023/11/17 13:10:35;;;;;;;67.73;28.83;;;;;;;;;;5078387;28;20625;-79
2023/11/17 13:13:06;;;;;;;57.57;27.73;;;;;;;;;;5080720;28;20025;-79
2023/11/17 13:15:33;;;;;;;68.93;30.10;;;;;;;;;;5121598;27;20028;-80
2023/11/17 13:18:02;;;;;;;65.80;29.43;;;;;;;;;;5094857;28;20034;-77
2023/11/17 13:20:30;;;;;;;63.50;29.17;;;;;;;;;;5090937;28;20052;-80
2023/11/17 13:22:57;;;;;;;59.57;28.40;;;;;;;;;;5084631;28;20025;-80
2023/11/17 13:25:25;;;;;;;64.87;30.93;;;;;;;;;;5095491;28;20226;-79
2023/11/17 13:27:52;;;;;;;68.07;30.93;;;;;;;;;;5093226;28;20090;-78
2023/11/17 13:30:18;;;;;;;65.17;29.20;;;;;;;;;;5086353;28;20024;-78
2023/11/17 13:32:52;;;;;;;66.80;30.53;;;;;;;;;;5082099;28;20555;-78
2023/11/17 13:35:24;;;;;;;68.30;30.00;;;;;;;;;;5085929;28;20035;-78
2023/11/17 13:38:14;;;;;;;68.65;29.48;;;;;;;;;;5096657;28;20013;-78
2023/11/17 13:40:42;;;;;;;70.80;30.00;;;;;;;;;;5093659;28;20067;-77
2023/11/17 13:43:11;;;;;;;63.87;28.90;;;;;;;;;;5087117;28;20100;-78
2023/11/17 13:45:42;;;;;;;65.70;28.50;;;;;;;;;;5092796;28;20036;-78
2023/11/17 13:48:10;;;;;;;65.30;27.87;;;;;;;;;;5085026;28;20291;-79
2023/11/17 13:50:39;;;;;;;60.07;26.63;;;;;;;;;;5089953;28;20020;-81
2023/11/17 13:53:08;;;;;;;66.10;28.93;;;;;;;;;;5089307;28;20024;-79
2023/11/17 13:55:34;;;;;;;64.47;29.93;;;;;;;;;;5090205;28;20037;-80
2023/11/17 13:58:02;;;;;;;61.90;27.57;;;;;;;;;;5100333;28;20029;-81
2023/11/17 14:00:28;;;;;;;61.23;29.97;;;;;;;;;;5090340;28;20044;-80
2023/11/17 14:02:57;;;;;;;66.97;29.97;;;;;;;;;;5092582;28;20028;-81
2023/11/17 14:05:23;;;;;;;69.93;30.97;;;;;;;;;;5081453;28;20054;-80
2023/11/17 14:07:49;;;;;;;68.53;30.07;;;;;;;;;;5099052;28;20075;-81
2023/11/17 14:10:17;;;;;;;65.60;30.03;;;;;;;;;;5088809;28;20094;-78
2023/11/17 14:12:45;;;;;;;69.40;29.27;;;;;;;;;;5091284;28;20053;-77
2023/11/17 14:15:16;;;;;;;73.07;31.23;;;;;;;;;;5085475;28;20044;-81
2023/11/17 14:17:43;;;;;;;75.57;32.70;;;;;;;;;;5088426;28;20029;-79
2023/11/17 14:20:12;;;;;;;76.30;32.37;;;;;;;;;;5090088;28;20027;-78
2023/11/17 14:22:39;;;;;;;66.50;30.27;;;;;;;;;;5083380;28;20028;-80